Time;durP1;ratioP1;P1;durP2;ratioP2;P2;SDS_P1;SDS_P2;PMS_P1;PMS_P2;Temp;Humidity;BMP_temperature;BMP_pressure;BME280_temperature;BME280_humidity;BME280_pressure;Samples;Min_cycle;Max_cycle;Signal;HPM_P1;HPM_P2
2022/01/04 00:00:39;;;;;;;;;;;8.80;95.50;;;;;;5023034;28;19909;-67
2022/01/04 00:03:06;;;;;;;;;;;8.70;95.50;;;;;;5021657;28;19909;-67
2022/01/04 00:05:32;;;;;;;;;;;8.70;95.60;;;;;;5021661;28;19917;-67
2022/01/04 00:07:59;;;;;;;;;;;8.70;95.90;;;;;;5023259;28;19914;-68
2022/01/04 00:10:26;;;;;;;;;;;8.70;96.00;;;;;;5022575;28;19915;-67
2022/01/04 00:15:39;;;;;;;;;;;8.60;96.30;;;;;;5022602;28;19921;-68
2022/01/04 00:18:05;;;;;;;;;;;8.60;96.50;;;;;;5037783;28;19917;-67
2022/01/04 00:20:31;;;;;;;;;;;8.60;96.60;;;;;;5042672;28;19971;-67
2022/01/04 00:22:56;;;;;;;;;;;8.60;96.70;;;;;;5042030;28;19947;-68
2022/01/04 00:25:22;;;;;;;;;;;8.60;96.90;;;;;;5042260;28;19972;-68
2022/01/04 00:27:48;;;;;;;;;;;8.60;97.00;;;;;;5041065;28;19913;-67
2022/01/04 00:30:13;;;;;;;;;;;8.60;97.00;;;;;;5042490;28;20008;-67
2022/01/04 00:32:39;;;;;;;;;;;8.60;97.20;;;;;;5041399;28;19916;-67
2022/01/04 00:35:05;;;;;;;;;;;8.60;97.30;;;;;;5042131;28;19932;-68
2022/01/04 00:37:31;;;;;;;;;;;8.70;97.40;;;;;;5042595;28;20047;-68
2022/01/04 00:39:58;;;;;;;;;;;8.60;97.50;;;;;;5042378;28;20220;-68
2022/01/04 00:42:23;;;;;;;;;;;8.60;97.50;;;;;;5042169;28;19909;-68
2022/01/04 00:44:49;;;;;;;;;;;8.70;97.60;;;;;;5040850;28;19952;-67
2022/01/04 00:47:15;;;;;;;;;;;8.70;97.60;;;;;;5042336;28;19928;-68
2022/01/04 00:49:41;;;;;;;;;;;8.70;97.60;;;;;;5040645;28;19972;-67
2022/01/04 00:52:12;;;;;;;;;;;8.70;97.80;;;;;;5043143;28;19916;-68
2022/01/04 00:54:38;;;;;;;;;;;8.60;98.00;;;;;;5045504;28;19909;-67
2022/01/04 00:57:04;;;;;;;;;;;8.60;98.00;;;;;;5045442;28;19916;-67
2022/01/04 00:59:29;;;;;;;;;;;8.60;98.00;;;;;;5045722;28;20196;-67
2022/01/04 01:01:55;;;;;;;;;;;8.60;98.20;;;;;;5045695;28;20147;-67
2022/01/04 01:04:22;;;;;;;;;;;8.60;98.50;;;;;;5044204;28;19916;-67
2022/01/04 01:06:47;;;;;;;;;;;8.50;98.40;;;;;;5044889;28;20204;-68
2022/01/04 01:09:13;;;;;;;;;;;8.50;98.60;;;;;;5045395;28;19913;-68
2022/01/04 01:11:39;;;;;;;;;;;8.60;98.60;;;;;;5045454;28;19976;-68
2022/01/04 01:14:05;;;;;;;;;;;8.60;98.60;;;;;;5045022;28;20116;-67
2022/01/04 01:16:31;;;;;;;;;;;8.60;98.60;;;;;;5043991;28;19970;-67
2022/01/04 01:18:57;;;;;;;;;;;8.60;98.40;;;;;;5043500;28;19909;-67
2022/01/04 01:21:23;;;;;;;;;;;8.60;98.50;;;;;;5045376;28;19909;-68
2022/01/04 01:23:49;;;;;;;;;;;8.60;98.70;;;;;;5045245;28;19917;-68
2022/01/04 01:26:14;;;;;;;;;;;8.60;98.70;;;;;;5044862;28;20169;-68
2022/01/04 01:28:40;;;;;;;;;;;8.60;99.00;;;;;;5044961;28;19913;-67
2022/01/04 01:31:07;;;;;;;;;;;8.50;98.70;;;;;;5043959;28;19913;-68
2022/01/04 01:33:32;;;;;;;;;;;8.50;98.70;;;;;;5043982;28;19909;-68
2022/01/04 01:35:58;;;;;;;;;;;8.50;98.70;;;;;;5044644;28;19909;-68
2022/01/04 01:38:25;;;;;;;;;;;8.50;98.80;;;;;;5044941;28;19917;-67
2022/01/04 01:40:51;;;;;;;;;;;8.40;98.80;;;;;;5044890;28;20200;-67
2022/01/04 01:43:17;;;;;;;;;;;8.40;99.00;;;;;;5043161;28;19988;-67
2022/01/04 01:45:43;;;;;;;;;;;8.40;99.10;;;;;;5043382;28;20188;-68
2022/01/04 01:48:08;;;;;;;;;;;8.40;99.10;;;;;;5043622;28;19920;-67
2022/01/04 01:50:34;;;;;;;;;;;8.40;99.20;;;;;;5043666;28;19960;-67
2022/01/04 01:53:00;;;;;;;;;;;8.30;99.40;;;;;;5044695;28;20227;-68
2022/01/04 01:55:26;;;;;;;;;;;8.30;99.30;;;;;;5043189;28;19932;-67
2022/01/04 01:57:52;;;;;;;;;;;8.30;99.50;;;;;;5044545;28;19913;-68
2022/01/04 02:00:19;;;;;;;;;;;8.30;99.50;;;;;;5044409;28;20108;-68
2022/01/04 02:02:45;;;;;;;;;;;8.30;99.50;;;;;;5042469;28;19913;-68
2022/01/04 02:05:11;;;;;;;;;;;8.40;99.60;;;;;;5044117;28;19916;-67
2022/01/04 02:07:37;;;;;;;;;;;8.40;99.50;;;;;;5043174;28;20266;-68
2022/01/04 02:10:05;;;;;;;;;;;8.30;99.40;;;;;;5044348;28;19909;-67
2022/01/04 02:12:32;;;;;;;;;;;8.40;99.50;;;;;;5042712;28;19917;-67
2022/01/04 02:14:57;;;;;;;;;;;8.40;99.60;;;;;;5042914;28;19916;-68
2022/01/04 02:17:23;;;;;;;;;;;8.40;99.60;;;;;;5044059;28;20172;-67
2022/01/04 02:19:51;;;;;;;;;;;8.40;99.60;;;;;;5043071;28;19944;-67
2022/01/04 02:22:16;;;;;;;;;;;8.40;99.70;;;;;;5043422;28;19916;-68
2022/01/04 02:24:42;;;;;;;;;;;8.40;99.80;;;;;;5043667;28;19940;-68
2022/01/04 02:27:08;;;;;;;;;;;8.40;99.80;;;;;;5043910;28;19921;-67
2022/01/04 02:29:33;;;;;;;;;;;8.40;99.80;;;;;;5043968;28;19909;-68
2022/01/04 02:31:59;;;;;;;;;;;8.40;99.80;;;;;;5043906;28;19976;-67
2022/01/04 02:34:25;;;;;;;;;;;8.50;99.70;;;;;;5043668;28;20246;-68
2022/01/04 02:36:50;;;;;;;;;;;8.50;99.80;;;;;;5043504;28;20177;-68
2022/01/04 02:39:16;;;;;;;;;;;8.40;99.90;;;;;;5043719;28;19913;-68
2022/01/04 02:41:42;;;;;;;;;;;8.50;99.90;;;;;;5043596;28;19909;-68
2022/01/04 02:44:07;;;;;;;;;;;8.40;99.90;;;;;;5042638;28;19913;-68
2022/01/04 02:46:33;;;;;;;;;;;8.50;99.90;;;;;;5043528;28;19909;-68
2022/01/04 02:48:59;;;;;;;;;;;8.50;99.90;;;;;;5043431;28;20212;-68
2022/01/04 02:51:24;;;;;;;;;;;8.50;99.90;;;;;;5042420;28;19959;-68
2022/01/04 02:53:50;;;;;;;;;;;8.50;99.90;;;;;;5043511;28;19919;-68
2022/01/04 02:56:16;;;;;;;;;;;8.50;99.90;;;;;;5043144;28;20144;-68
2022/01/04 02:58:41;;;;;;;;;;;8.50;99.90;;;;;;5042163;28;19909;-68
2022/01/04 03:01:07;;;;;;;;;;;8.50;99.90;;;;;;5042331;28;19913;-68
2022/01/04 03:03:33;;;;;;;;;;;8.50;99.90;;;;;;5042502;28;19947;-68
2022/01/04 03:05:58;;;;;;;;;;;8.50;99.90;;;;;;5042999;28;19909;-68
2022/01/04 03:08:24;;;;;;;;;;;8.50;99.90;;;;;;5043275;28;19913;-68
2022/01/04 03:10:50;;;;;;;;;;;8.60;99.90;;;;;;5042072;28;19917;-68
2022/01/04 03:13:16;;;;;;;;;;;8.60;99.90;;;;;;5025744;28;19924;-68
2022/01/04 03:15:45;;;;;;;;;;;8.60;99.90;;;;;;5041196;28;19913;-68
2022/01/04 03:18:11;;;;;;;;;;;8.60;99.90;;;;;;5025404;28;19909;-67
2022/01/04 03:20:36;;;;;;;;;;;8.60;99.90;;;;;;5043141;28;19939;-67
2022/01/04 03:23:02;;;;;;;;;;;8.60;99.90;;;;;;5042336;28;20204;-67
2022/01/04 03:25:28;;;;;;;;;;;8.60;99.90;;;;;;5042643;28;19909;-67
2022/01/04 03:27:54;;;;;;;;;;;8.60;99.90;;;;;;5042985;28;19913;-67
2022/01/04 03:30:19;;;;;;;;;;;8.60;99.90;;;;;;5042965;28;19924;-67
2022/01/04 03:32:45;;;;;;;;;;;8.70;99.90;;;;;;5041874;28;20134;-68
2022/01/04 03:35:11;;;;;;;;;;;8.70;99.90;;;;;;5042673;28;19909;-68
2022/01/04 03:37:36;;;;;;;;;;;8.60;99.90;;;;;;5042627;28;19909;-68
2022/01/04 03:40:03;;;;;;;;;;;8.70;99.90;;;;;;5042885;28;19909;-67
2022/01/04 03:42:29;;;;;;;;;;;8.70;99.90;;;;;;5041805;28;19912;-67
2022/01/04 03:44:55;;;;;;;;;;;8.70;99.90;;;;;;5042453;28;19971;-67
2022/01/04 03:47:20;;;;;;;;;;;8.70;99.90;;;;;;5042365;28;20204;-67
2022/01/04 03:49:46;;;;;;;;;;;8.70;99.90;;;;;;5042468;28;19909;-67
2022/01/04 03:52:12;;;;;;;;;;;8.70;99.90;;;;;;5042737;28;19909;-67
2022/01/04 03:54:37;;;;;;;;;;;8.70;99.90;;;;;;5042489;28;19909;-67
2022/01/04 03:57:04;;;;;;;;;;;8.70;99.90;;;;;;5042719;28;19909;-68
2022/01/04 03:59:29;;;;;;;;;;;8.70;99.90;;;;;;5041138;28;20250;-68
2022/01/04 04:01:55;;;;;;;;;;;8.70;99.90;;;;;;5041570;28;19909;-67
2022/01/04 04:04:21;;;;;;;;;;;8.70;99.90;;;;;;5041686;28;20216;-67
2022/01/04 04:06:47;;;;;;;;;;;8.70;99.90;;;;;;5042387;28;19991;-68
2022/01/04 04:09:12;;;;;;;;;;;8.70;99.90;;;;;;5041534;28;19943;-68
2022/01/04 04:11:38;;;;;;;;;;;8.70;99.90;;;;;;5042674;28;19935;-67
2022/01/04 04:14:04;;;;;;;;;;;8.70;99.90;;;;;;5042626;28;19947;-68
2022/01/04 04:16:29;;;;;;;;;;;8.70;99.90;;;;;;5073630;22;20030;-67
2022/01/04 04:18:55;;;;;;;;;;;8.70;99.90;;;;;;5075703;28;19916;-66
2022/01/04 04:21:21;;;;;;;;;;;8.70;99.90;;;;;;5079551;28;19916;-66
2022/01/04 04:23:46;;;;;;;;;;;8.70;99.90;;;;;;5088188;28;19995;-67
2022/01/04 04:26:12;;;;;;;;;;;8.70;99.90;;;;;;5082865;28;20115;-67
2022/01/04 04:28:38;;;;;;;;;;;8.70;99.90;;;;;;5085241;28;19912;-67
2022/01/04 04:31:05;;;;;;;;;;;8.70;99.90;;;;;;5086174;28;19908;-66
2022/01/04 04:33:31;;;;;;;;;;;8.60;99.90;;;;;;5085406;28;19939;-67
2022/01/04 04:35:56;;;;;;;;;;;8.70;99.90;;;;;;5085836;28;20203;-69
2022/01/04 04:38:22;;;;;;;;;;;8.70;99.90;;;;;;5085949;28;19915;-67
2022/01/04 04:40:48;;;;;;;;;;;8.70;99.90;;;;;;5084951;28;19908;-67
2022/01/04 04:43:13;;;;;;;;;;;8.70;99.90;;;;;;5085957;28;20150;-66
2022/01/04 04:45:39;;;;;;;;;;;8.70;99.90;;;;;;5084866;28;19916;-68
2022/01/04 04:48:05;;;;;;;;;;;8.70;99.90;;;;;;5085814;28;19956;-67
2022/01/04 04:50:31;;;;;;;;;;;8.70;99.90;;;;;;5085214;28;19930;-67
2022/01/04 04:52:57;;;;;;;;;;;8.60;99.90;;;;;;5085845;28;19909;-67
2022/01/04 04:55:23;;;;;;;;;;;8.60;99.90;;;;;;5084845;28;19908;-68
2022/01/04 04:57:48;;;;;;;;;;;8.70;99.90;;;;;;5085432;28;19912;-67
2022/01/04 05:00:14;;;;;;;;;;;8.60;99.90;;;;;;5085409;28;19909;-67
2022/01/04 05:02:40;;;;;;;;;;;8.70;99.90;;;;;;5082336;28;19908;-66
2022/01/04 05:05:07;;;;;;;;;;;8.70;99.90;;;;;;5084191;28;19916;-67
2022/01/04 05:07:34;;;;;;;;;;;8.70;99.90;;;;;;5084768;28;20001;-67
2022/01/04 05:10:00;;;;;;;;;;;8.70;99.90;;;;;;5085216;28;20223;-67
2022/01/04 05:12:26;;;;;;;;;;;8.70;99.90;;;;;;5084675;28;19908;-67
2022/01/04 05:14:51;;;;;;;;;;;8.70;99.90;;;;;;5084822;28;19961;-66
2022/01/04 05:17:17;;;;;;;;;;;8.70;99.90;;;;;;5084399;28;19995;-67
2022/01/04 05:19:43;;;;;;;;;;;8.70;99.90;;;;;;5085008;28;19909;-67
2022/01/04 05:22:09;;;;;;;;;;;8.70;99.90;;;;;;5085436;28;19908;-66
2022/01/04 05:24:34;;;;;;;;;;;8.70;99.90;;;;;;5084345;28;20149;-67
2022/01/04 05:27:00;;;;;;;;;;;8.70;99.90;;;;;;5084526;28;19940;-67
2022/01/04 05:29:26;;;;;;;;;;;8.70;99.90;;;;;;5084640;28;19939;-67
2022/01/04 05:31:52;;;;;;;;;;;8.70;99.90;;;;;;5084772;28;20203;-67
2022/01/04 05:34:17;;;;;;;;;;;8.70;99.90;;;;;;5084741;28;19908;-67
2022/01/04 05:36:43;;;;;;;;;;;8.70;99.90;;;;;;5084356;28;19947;-66
2022/01/04 05:39:09;;;;;;;;;;;8.70;99.90;;;;;;5084157;28;19917;-67
2022/01/04 05:41:34;;;;;;;;;;;8.70;99.90;;;;;;5084602;28;19908;-67
2022/01/04 05:44:00;;;;;;;;;;;8.70;99.90;;;;;;5084890;28;19962;-67
2022/01/04 05:46:26;;;;;;;;;;;8.70;99.90;;;;;;5084180;28;19979;-67
2022/01/04 05:48:52;;;;;;;;;;;8.70;99.90;;;;;;5084544;28;19913;-67
2022/01/04 05:51:17;;;;;;;;;;;8.70;99.90;;;;;;5084724;28;20222;-67
2022/01/04 05:53:43;;;;;;;;;;;8.70;99.90;;;;;;5084697;28;19979;-67
2022/01/04 05:56:09;;;;;;;;;;;8.70;99.90;;;;;;5083300;28;19909;-67
2022/01/04 05:58:34;;;;;;;;;;;8.70;99.90;;;;;;5084346;28;19924;-68
2022/01/04 06:01:00;;;;;;;;;;;8.70;99.90;;;;;;5084523;28;20231;-67
2022/01/04 06:03:26;;;;;;;;;;;8.70;99.90;;;;;;5084033;28;19908;-68
2022/01/04 06:05:52;;;;;;;;;;;8.80;99.90;;;;;;5083969;28;19992;-67
2022/01/04 06:08:19;;;;;;;;;;;8.70;99.90;;;;;;5083380;28;19987;-67
2022/01/04 06:10:50;;;;;;;;;;;8.70;99.90;;;;;;5084291;28;19944;-67
2022/01/04 06:16:00;;;;;;;;;;;8.70;99.90;;;;;;5083929;28;19947;-67
2022/01/04 06:18:26;;;;;;;;;;;8.70;99.90;;;;;;5083645;28;19912;-68
2022/01/04 06:20:51;;;;;;;;;;;8.70;99.90;;;;;;5083994;28;19948;-67
2022/01/04 06:23:17;;;;;;;;;;;8.70;99.90;;;;;;5084029;28;19908;-67
2022/01/04 06:25:43;;;;;;;;;;;8.70;99.90;;;;;;5083711;28;20092;-66
2022/01/04 06:28:08;;;;;;;;;;;8.80;99.90;;;;;;5083446;28;19988;-67
2022/01/04 06:30:34;;;;;;;;;;;8.80;99.90;;;;;;5082717;28;19908;-67
2022/01/04 06:33:00;;;;;;;;;;;8.70;99.90;;;;;;5083134;28;20119;-67
2022/01/04 06:35:27;;;;;;;;;;;8.80;99.90;;;;;;5083165;28;19908;-67
2022/01/04 06:37:52;;;;;;;;;;;8.80;99.90;;;;;;5082464;28;19991;-68
2022/01/04 06:40:18;;;;;;;;;;;8.70;99.90;;;;;;5083637;28;20309;-68
2022/01/04 06:42:44;;;;;;;;;;;8.80;99.90;;;;;;5083734;28;19916;-67
2022/01/04 06:45:11;;;;;;;;;;;8.70;99.90;;;;;;5083360;28;19908;-67
2022/01/04 06:47:36;;;;;;;;;;;8.70;99.90;;;;;;5083100;28;19935;-67
2022/01/04 06:50:04;;;;;;;;;;;8.70;99.90;;;;;;5082496;28;19971;-67
2022/01/04 06:52:29;;;;;;;;;;;8.70;99.90;;;;;;5083408;28;19979;-66
2022/01/04 06:54:55;;;;;;;;;;;8.70;99.90;;;;;;5083205;28;19927;-67
2022/01/04 06:57:21;;;;;;;;;;;8.70;99.90;;;;;;5083245;28;20010;-68
2022/01/04 06:59:46;;;;;;;;;;;8.70;99.90;;;;;;5083145;28;19908;-68
2022/01/04 07:02:12;;;;;;;;;;;8.70;99.90;;;;;;5082658;28;20260;-67
2022/01/04 07:04:38;;;;;;;;;;;8.70;99.90;;;;;;5082689;28;20001;-67
2022/01/04 07:07:03;;;;;;;;;;;8.70;99.90;;;;;;5083003;28;19908;-67
2022/01/04 07:09:29;;;;;;;;;;;8.70;99.90;;;;;;5083239;28;19983;-68
2022/01/04 07:11:55;;;;;;;;;;;8.70;99.90;;;;;;5082214;28;19979;-67
2022/01/04 07:14:20;;;;;;;;;;;8.70;99.90;;;;;;5082791;28;19916;-67
2022/01/04 07:16:46;;;;;;;;;;;8.60;99.90;;;;;;5082299;28;20222;-67
2022/01/04 07:19:12;;;;;;;;;;;8.70;99.90;;;;;;5082436;28;20022;-67
2022/01/04 07:21:37;;;;;;;;;;;8.70;99.90;;;;;;5082666;28;19912;-67
2022/01/04 07:24:04;;;;;;;;;;;8.60;99.90;;;;;;5081570;28;20199;-67
2022/01/04 07:26:30;;;;;;;;;;;8.70;99.90;;;;;;5069563;28;19912;-67
2022/01/04 07:28:56;;;;;;;;;;;8.70;99.90;;;;;;5074608;28;19916;-67
2022/01/04 07:31:21;;;;;;;;;;;8.70;99.90;;;;;;5082421;28;19945;-67
2022/01/04 07:33:47;;;;;;;;;;;8.70;99.90;;;;;;5062809;28;19913;-67
2022/01/04 07:36:13;;;;;;;;;;;8.80;99.90;;;;;;5069118;28;19909;-67
2022/01/04 07:38:39;;;;;;;;;;;8.70;99.90;;;;;;5082689;28;19974;-66
2022/01/04 07:41:04;;;;;;;;;;;8.80;99.90;;;;;;5082844;28;20200;-67
2022/01/04 07:43:31;;;;;;;;;;;8.80;99.90;;;;;;5082724;28;19916;-67
2022/01/04 07:45:56;;;;;;;;;;;8.80;99.90;;;;;;5082596;28;19979;-70
2022/01/04 07:48:22;;;;;;;;;;;8.70;99.90;;;;;;5082976;28;19958;-66
2022/01/04 07:50:49;;;;;;;;;;;8.80;99.90;;;;;;5082140;28;20207;-66
2022/01/04 07:53:15;;;;;;;;;;;8.80;99.90;;;;;;5081872;28;19908;-66
2022/01/04 07:55:40;;;;;;;;;;;8.80;99.90;;;;;;5081560;28;20133;-66
2022/01/04 07:58:06;;;;;;;;;;;8.80;99.90;;;;;;5082791;28;19909;-66
2022/01/04 08:00:32;;;;;;;;;;;8.80;99.90;;;;;;5083043;28;19909;-66
2022/01/04 08:02:58;;;;;;;;;;;8.80;99.90;;;;;;5087041;28;19915;-69
2022/01/04 08:05:23;;;;;;;;;;;8.80;99.90;;;;;;5086641;28;20261;-68
2022/01/04 08:07:50;;;;;;;;;;;8.90;99.90;;;;;;5086743;28;19913;-69
2022/01/04 08:10:16;;;;;;;;;;;8.80;99.90;;;;;;5086442;28;20234;-69
2022/01/04 08:12:41;;;;;;;;;;;8.80;99.90;;;;;;5086741;28;19909;-69
2022/01/04 08:15:08;;;;;;;;;;;8.80;99.90;;;;;;5086467;28;19996;-69
2022/01/04 08:17:34;;;;;;;;;;;8.80;99.90;;;;;;5085568;28;19912;-69
2022/01/04 08:20:00;;;;;;;;;;;8.90;99.90;;;;;;5085485;28;20007;-69
2022/01/04 08:22:31;;;;;;;;;;;8.90;99.90;;;;;;5085599;28;20145;-69
2022/01/04 08:25:01;;;;;;;;;;;8.90;99.90;;;;;;5084964;28;19909;-69
2022/01/04 08:27:27;;;;;;;;;;;8.90;99.90;;;;;;5086595;28;19919;-68
2022/01/04 08:29:53;;;;;;;;;;;8.90;99.90;;;;;;5085865;28;19915;-71
2022/01/04 08:32:19;;;;;;;;;;;8.90;99.90;;;;;;5086999;28;19944;-70
2022/01/04 08:34:44;;;;;;;;;;;9.00;99.90;;;;;;5086495;28;19921;-71
2022/01/04 08:37:10;;;;;;;;;;;9.00;99.90;;;;;;5085899;28;19979;-70
2022/01/04 08:39:36;;;;;;;;;;;9.00;99.90;;;;;;5085958;28;19918;-71
2022/01/04 08:42:02;;;;;;;;;;;9.00;99.90;;;;;;5086372;28;19915;-71
2022/01/04 08:44:28;;;;;;;;;;;9.00;99.90;;;;;;5086068;28;19916;-70
2022/01/04 08:46:54;;;;;;;;;;;9.00;99.90;;;;;;5086222;28;20102;-71
2022/01/04 08:49:20;;;;;;;;;;;9.00;99.90;;;;;;5086164;28;19913;-71
2022/01/04 08:51:46;;;;;;;;;;;9.00;99.90;;;;;;5086245;28;20145;-70
2022/01/04 08:54:12;;;;;;;;;;;9.10;99.90;;;;;;5085469;28;20222;-71
2022/01/04 08:56:38;;;;;;;;;;;9.10;99.90;;;;;;5084629;28;19967;-71
2022/01/04 08:59:05;;;;;;;;;;;9.10;99.90;;;;;;5086281;28;19915;-70
2022/01/04 09:01:32;;;;;;;;;;;9.10;99.90;;;;;;5085376;28;19916;-72
2022/01/04 09:03:58;;;;;;;;;;;9.10;99.90;;;;;;5084547;28;20200;-71
2022/01/04 09:06:24;;;;;;;;;;;9.10;99.90;;;;;;5084726;28;19935;-70
2022/01/04 09:08:55;;;;;;;;;;;9.10;99.90;;;;;;5085390;28;19912;-70
2022/01/04 09:11:22;;;;;;;;;;;9.10;99.90;;;;;;5084633;28;19952;-71
2022/01/04 09:13:48;;;;;;;;;;;9.20;99.90;;;;;;5084029;28;19908;-71
2022/01/04 09:18:46;;;;;;;;;;;9.20;99.90;;;;;;5085512;28;19908;-70
2022/01/04 09:21:24;;;;;;;;;;;9.20;99.90;;;;;;5085662;28;19927;-71
2022/01/04 09:23:50;;;;;;;;;;;9.20;99.90;;;;;;5085177;28;19908;-71
2022/01/04 09:26:17;;;;;;;;;;;9.30;99.90;;;;;;5083948;28;20084;-70
2022/01/04 09:28:43;;;;;;;;;;;9.40;99.90;;;;;;5078834;28;20138;-71
2022/01/04 09:31:09;;;;;;;;;;;9.30;99.90;;;;;;5072443;28;19913;-72
2022/01/04 09:33:35;;;;;;;;;;;9.30;99.90;;;;;;5065168;28;19916;-72
2022/01/04 09:36:00;;;;;;;;;;;9.40;99.90;;;;;;5063897;28;19913;-72
2022/01/04 09:38:26;;;;;;;;;;;9.30;99.90;;;;;;5077265;28;20203;-71
2022/01/04 09:40:54;;;;;;;;;;;9.30;99.90;;;;;;5084904;28;20111;-72
2022/01/04 09:43:20;;;;;;;;;;;9.40;99.90;;;;;;5083345;28;20203;-70
2022/01/04 09:45:47;;;;;;;;;;;9.40;99.90;;;;;;5084580;28;19935;-71
2022/01/04 09:48:13;;;;;;;;;;;9.40;99.90;;;;;;5084782;28;19913;-74
2022/01/04 09:50:38;;;;;;;;;;;9.40;99.90;;;;;;5083790;28;19976;-74
2022/01/04 09:53:07;;;;;;;;;;;9.40;99.90;;;;;;5084488;28;19916;-73
2022/01/04 09:55:34;;;;;;;;;;;9.40;99.90;;;;;;5082702;28;19909;-73
2022/01/04 09:58:00;;;;;;;;;;;9.40;99.90;;;;;;5082931;28;19921;-73
2022/01/04 10:00:26;;;;;;;;;;;9.50;99.90;;;;;;5083441;28;19915;-73
2022/01/04 10:02:52;;;;;;;;;;;9.50;99.90;;;;;;5083243;28;20034;-71
2022/01/04 10:05:22;;;;;;;;;;;9.50;99.90;;;;;;5084404;28;19908;-71
2022/01/04 10:07:48;;;;;;;;;;;9.50;99.90;;;;;;5082785;28;19913;-71
2022/01/04 10:10:17;;;;;;;;;;;9.50;99.90;;;;;;5084024;28;19913;-71
2022/01/04 10:12:49;;;;;;;;;;;9.50;99.90;;;;;;5083025;28;20085;-71
2022/01/04 10:15:48;;;;;;;;;;;9.60;99.90;;;;;;5080222;28;19920;-71
2022/01/04 10:18:13;;;;;;;;;;;9.60;99.90;;;;;;5082979;28;19919;-72
2022/01/04 10:20:43;;;;;;;;;;;9.60;99.90;;;;;;5097888;22;19908;-68
2022/01/04 10:23:17;;;;;;;;;;;9.60;99.90;;;;;;5070656;28;19952;-68
2022/01/04 10:25:44;;;;;;;;;;;9.60;99.90;;;;;;5062985;28;19909;-68
2022/01/04 10:28:10;;;;;;;;;;;9.60;99.90;;;;;;5049259;28;19913;-68
2022/01/04 10:30:38;;;;;;;;;;;9.70;99.90;;;;;;5063273;28;19967;-68
2022/01/04 10:33:11;;;;;;;;;;;9.70;99.90;;;;;;5063721;28;19908;-68
2022/01/04 10:35:40;;;;;;;;;;;9.70;99.90;;;;;;5063465;28;19916;-68
2022/01/04 10:38:27;;;;;;;;;;;9.70;99.90;;;;;;5063034;28;19986;-68
2022/01/04 10:41:02;;;;;;;;;;;9.70;99.90;;;;;;5063334;28;20092;-74
2022/01/04 10:43:31;;;;;;;;;;;9.80;99.90;;;;;;5062094;28;19909;-74
2022/01/04 10:45:57;;;;;;;;;;;9.80;99.90;;;;;;5061323;28;20111;-69
2022/01/04 10:48:31;;;;;;;;;;;9.80;99.90;;;;;;5062943;28;19915;-72
2022/01/04 10:51:07;;;;;;;;;;;9.80;99.90;;;;;;5061123;28;19925;-72
2022/01/04 10:53:37;;;;;;;;;;;9.80;99.90;;;;;;5062778;28;19908;-72
2022/01/04 10:56:13;;;;;;;;;;;9.80;99.90;;;;;;5059583;28;19916;-74
2022/01/04 10:58:44;;;;;;;;;;;9.90;99.90;;;;;;5043458;28;19980;-74
2022/01/04 11:01:14;;;;;;;;;;;9.90;99.90;;;;;;5055818;28;19975;-76
2022/01/04 11:04:00;;;;;;;;;;;9.90;99.90;;;;;;5045752;28;20092;-70
2022/01/04 11:06:35;;;;;;;;;;;10.00;99.90;;;;;;5060961;28;19913;-72
2022/01/04 11:09:01;;;;;;;;;;;10.00;99.90;;;;;;5062840;28;19915;-72
2022/01/04 11:11:27;;;;;;;;;;;10.00;99.90;;;;;;5062313;28;19912;-72
2022/01/04 11:13:53;;;;;;;;;;;10.00;99.90;;;;;;5062625;28;19946;-72
2022/01/04 11:16:23;;;;;;;;;;;10.00;99.90;;;;;;5060564;28;19916;-72
2022/01/04 11:18:51;;;;;;;;;;;10.00;99.90;;;;;;5061510;28;20196;-71
2022/01/04 11:21:24;;;;;;;;;;;10.00;99.90;;;;;;5061785;28;19919;-70
2022/01/04 11:23:50;;;;;;;;;;;10.10;99.90;;;;;;5061699;28;19959;-70
2022/01/04 11:26:16;;;;;;;;;;;10.10;99.90;;;;;;5060886;28;19909;-71
2022/01/04 11:28:43;;;;;;;;;;;10.20;99.90;;;;;;5055379;28;19920;-71
2022/01/04 11:31:27;;;;;;;;;;;10.20;99.90;;;;;;5060032;28;19913;-71
2022/01/04 11:33:57;;;;;;;;;;;10.20;99.90;;;;;;5062506;28;19909;-71
2022/01/04 11:36:24;;;;;;;;;;;10.30;99.90;;;;;;5060530;28;19909;-71
2022/01/04 11:38:50;;;;;;;;;;;10.30;99.90;;;;;;5061420;28;19909;-71
2022/01/04 11:41:40;;;;;;;;;;;10.30;99.90;;;;;;5062790;28;20230;-72
2022/01/04 11:44:19;;;;;;;;;;;10.40;99.90;;;;;;5042303;28;20078;-70
2022/01/04 11:47:09;;;;;;;;;;;10.40;99.90;;;;;;5042687;28;19909;-72
2022/01/04 11:49:39;;;;;;;;;;;10.50;99.90;;;;;;5049128;28;19915;-71
2022/01/04 11:52:07;;;;;;;;;;;10.60;99.90;;;;;;5062718;28;20143;-70
2022/01/04 11:54:33;;;;;;;;;;;10.60;99.90;;;;;;5061773;28;20103;-69
2022/01/04 11:57:05;;;;;;;;;;;10.60;99.90;;;;;;5059912;28;19915;-70
2022/01/04 11:59:33;;;;;;;;;;;10.60;99.90;;;;;;5052974;28;19958;-70
2022/01/04 12:02:32;;;;;;;;;;;10.60;99.90;;;;;;5042918;28;20108;-71
2022/01/04 12:04:58;;;;;;;;;;;10.70;99.90;;;;;;5051140;28;19955;-69
2022/01/04 12:07:42;;;;;;;;;;;10.70;99.90;;;;;;5061236;28;20267;-70
2022/01/04 12:10:20;;;;;;;;;;;10.70;99.90;;;;;;5062001;28;19927;-70
2022/01/04 12:12:59;;;;;;;;;;;10.80;99.90;;;;;;5062157;28;19909;-69
2022/01/04 12:15:34;;;;;;;;;;;10.70;99.90;;;;;;5060665;28;19915;-71
2022/01/04 12:18:21;;;;;;;;;;;10.90;99.90;;;;;;5062221;28;20172;-71
2022/01/04 12:20:48;;;;;;;;;;;10.90;99.90;;;;;;5061764;28;19909;-70
2022/01/04 12:23:23;;;;;;;;;;;11.00;99.90;;;;;;5061020;28;19909;-70
2022/01/04 12:26:14;;;;;;;;;;;11.10;99.90;;;;;;5061996;28;20108;-70
2022/01/04 12:28:43;;;;;;;;;;;11.10;99.90;;;;;;5045275;28;19950;-71
2022/01/04 12:31:16;;;;;;;;;;;11.20;99.90;;;;;;5053398;28;19920;-71
2022/01/04 12:33:44;;;;;;;;;;;11.20;99.90;;;;;;5061540;28;20155;-71
2022/01/04 12:36:10;;;;;;;;;;;11.20;99.90;;;;;;5062051;28;19908;-71
2022/01/04 12:38:36;;;;;;;;;;;11.20;99.90;;;;;;5060776;28;20157;-71
2022/01/04 12:41:02;;;;;;;;;;;11.20;99.90;;;;;;5061848;28;19979;-71
2022/01/04 12:43:28;;;;;;;;;;;11.20;99.90;;;;;;5056043;28;19913;-72
2022/01/04 12:45:57;;;;;;;;;;;11.30;99.90;;;;;;5050563;28;19909;-71
2022/01/04 12:48:44;;;;;;;;;;;11.30;99.90;;;;;;5046116;28;20023;-71
2022/01/04 12:51:38;;;;;;;;;;;11.30;99.90;;;;;;5065492;28;19979;-70
2022/01/04 12:54:06;;;;;;;;;;;11.40;99.90;;;;;;5059384;28;19971;-70
2022/01/04 12:56:32;;;;;;;;;;;11.50;99.90;;;;;;5065349;28;19912;-70
2022/01/04 12:58:58;;;;;;;;;;;11.50;99.90;;;;;;5065324;28;20020;-71
2022/01/04 13:01:26;;;;;;;;;;;11.50;99.90;;;;;;5064827;28;19908;-71
2022/01/04 13:03:53;;;;;;;;;;;11.50;99.90;;;;;;5065667;28;20214;-66
2022/01/04 13:06:18;;;;;;;;;;;11.60;99.90;;;;;;5064427;28;19909;-66
2022/01/04 13:08:51;;;;;;;;;;;11.70;99.90;;;;;;5065466;28;19916;-66
2022/01/04 13:11:17;;;;;;;;;;;11.80;99.90;;;;;;5064550;28;19921;-66
2022/01/04 13:13:43;;;;;;;;;;;12.00;99.90;;;;;;5059488;28;19947;-66
2022/01/04 13:16:30;;;;;;;;;;;12.10;99.70;;;;;;5055668;28;20104;-75
2022/01/04 13:19:18;;;;;;;;;;;12.20;99.60;;;;;;5045134;28;20023;-71
2022/01/04 13:21:52;;;;;;;;;;;12.00;99.70;;;;;;5070200;28;20294;-71
2022/01/04 13:24:32;;;;;;;;;;;11.90;99.90;;;;;;5045055;28;19971;-70
2022/01/04 13:27:26;;;;;;;;;;;11.80;99.90;;;;;;5054564;28;19913;-72
2022/01/04 13:30:17;;;;;;;;;;;11.70;99.90;;;;;;5063441;28;19912;-72
2022/01/04 13:32:48;;;;;;;;;;;11.60;99.90;;;;;;5038870;28;19908;-72
2022/01/04 13:35:33;;;;;;;;;;;11.60;99.90;;;;;;5043693;28;19912;-72
2022/01/04 13:38:08;;;;;;;;;;;11.50;99.90;;;;;;5060296;28;19986;-72
2022/01/04 13:40:34;;;;;;;;;;;11.50;99.90;;;;;;5063959;28;20199;-72
2022/01/04 13:43:07;;;;;;;;;;;11.40;99.90;;;;;;5063149;28;19917;-73
2022/01/04 13:45:50;;;;;;;;;;;11.30;99.90;;;;;;5063773;28;19909;-72
2022/01/04 13:48:25;;;;;;;;;;;11.20;99.50;;;;;;5063932;28;19958;-72
2022/01/04 13:50:51;;;;;;;;;;;11.00;98.30;;;;;;5063278;28;19920;-72
2022/01/04 13:53:21;;;;;;;;;;;10.70;98.40;;;;;;5062565;28;19954;-72
2022/01/04 13:55:48;;;;;;;;;;;10.50;98.30;;;;;;5064007;28;19908;-72
2022/01/04 13:58:37;;;;;;;;;;;10.40;98.90;;;;;;5062511;28;19940;-73
2022/01/04 14:01:26;;;;;;;;;;;10.40;99.20;;;;;;5064433;28;19954;-72
2022/01/04 14:04:14;;;;;;;;;;;10.30;99.00;;;;;;5063698;28;19909;-73
2022/01/04 14:06:49;;;;;;;;;;;10.20;99.50;;;;;;5064130;28;20204;-73
2022/01/04 14:09:35;;;;;;;;;;;10.20;99.70;;;;;;5063899;28;19909;-72
2022/01/04 14:12:01;;;;;;;;;;;10.10;99.60;;;;;;5063309;28;19913;-72
2022/01/04 14:14:44;;;;;;;;;;;9.90;98.40;;;;;;5063438;28;20227;-72
2022/01/04 14:17:10;;;;;;;;;;;9.80;97.90;;;;;;5064468;28;19916;-72
2022/01/04 14:19:46;;;;;;;;;;;9.30;97.60;;;;;;5063700;28;20196;-72
2022/01/04 14:22:17;;;;;;;;;;;9.10;97.80;;;;;;5062623;28;19912;-71
2022/01/04 14:24:49;;;;;;;;;;;9.00;98.10;;;;;;5062252;28;19936;-71
2022/01/04 14:27:19;;;;;;;;;;;8.90;97.80;;;;;;5063734;28;19916;-71
2022/01/04 14:29:47;;;;;;;;;;;8.80;98.50;;;;;;5063566;28;20200;-71
2022/01/04 14:32:26;;;;;;;;;;;8.60;98.40;;;;;;5062608;28;19940;-72
2022/01/04 14:34:53;;;;;;;;;;;8.60;99.00;;;;;;5062422;28;19988;-72
2022/01/04 14:37:19;;;;;;;;;;;8.60;98.60;;;;;;5063332;28;19909;-72
2022/01/04 14:39:45;;;;;;;;;;;8.50;98.10;;;;;;5063985;28;19931;-72